Atkinson, Nebraska
Current Conditions -  °F | °C
As of 3:55 PM on Tuesday 25 Nov 2014 (Local Time) from KONL Reporting Station
Overcast Overcast  
Wind Chill: 38°   Ceiling: 5500
Heat Index: 44°   Visibility: 10mi
Dew Point: 22°   Wind: 12mph
Humidity: 42%   Direction: 190°S
Pressure: 29.81"   Gusts: NA
Location:  42.53°N, 98.98°W
Report Text: KONL 252155Z AUTO 19010KT 10SM BKN055 BKN080 OVC100 07/M06 A2981 RMK AO2 T00651056
Loading
Personal Weather Stations






























Interactive Weather Map New forecast layout! Learn more

10-Day Weather Forecast

Advertisements
Track Severe Weather on mobile